createdAt,value
2019-02-18T00:02:31.735Z,41.33
2019-02-18T00:05:14.359Z,41.31
2019-02-18T00:08:04.769Z,41.43
2019-02-18T00:10:48.080Z,41.60
2019-02-18T00:13:38.810Z,41.85
2019-02-18T00:16:21.587Z,42.00
2019-02-18T00:19:15.053Z,42.29
2019-02-18T00:21:57.759Z,42.40
2019-02-18T00:24:48.151Z,42.62
2019-02-18T00:27:31.386Z,42.90
2019-02-18T00:30:21.743Z,42.94
2019-02-18T00:33:05.282Z,43.14
2019-02-18T00:35:55.684Z,43.38
2019-02-18T00:38:38.308Z,43.49
2019-02-18T00:41:28.653Z,43.71
2019-02-18T00:44:12.064Z,43.88
2019-02-18T00:47:02.446Z,44.01
2019-02-18T00:49:45.134Z,44.16
2019-02-18T00:52:35.516Z,44.24
2019-02-18T00:55:18.236Z,44.34
2019-02-18T00:58:08.609Z,44.43
2019-02-18T01:00:51.730Z,44.33
2019-02-18T01:03:42.121Z,44.19
2019-02-18T01:06:25.654Z,44.25
2019-02-18T01:09:16.036Z,44.23
2019-02-18T01:11:58.621Z,44.12
2019-02-18T01:14:49.017Z,44.08
2019-02-18T01:17:32.339Z,44.04
2019-02-18T01:20:22.755Z,44.12
2019-02-18T01:23:06.143Z,44.09
2019-02-18T01:25:56.515Z,44.20
2019-02-18T01:28:39.253Z,44.20
2019-02-18T01:31:29.641Z,44.21
2019-02-18T01:34:13.078Z,44.18
2019-02-18T01:37:03.474Z,44.20
2019-02-18T01:39:46.730Z,44.09
2019-02-18T01:42:37.114Z,44.26
2019-02-18T01:45:27.463Z,44.18
2019-02-18T01:48:10.851Z,44.35
2019-02-18T01:50:53.473Z,44.46
2019-02-18T01:53:43.780Z,44.58
2019-02-18T01:56:27.010Z,44.53
2019-02-18T01:59:17.369Z,44.66
2019-02-18T02:01:59.863Z,44.79
2019-02-18T02:04:50.247Z,45.01
2019-02-18T02:07:33.332Z,45.05
2019-02-18T02:10:23.692Z,45.15
2019-02-18T02:13:25.261Z,45.17
2019-02-18T02:16:09.383Z,45.29
2019-02-18T02:18:54.633Z,45.43
2019-02-18T02:21:44.997Z,45.38
2019-02-18T02:24:27.964Z,45.64
2019-02-18T02:27:18.340Z,45.60
2019-02-18T02:30:00.989Z,45.63
2019-02-18T02:32:51.346Z,45.47
2019-02-18T02:35:34.071Z,45.33
2019-02-18T02:38:24.421Z,45.26
2019-02-18T02:41:07.504Z,45.38
2019-02-18T02:43:57.871Z,44.90
2019-02-18T02:46:40.799Z,44.92
2019-02-18T02:49:31.185Z,44.81
2019-02-18T02:52:14.593Z,44.91
2019-02-18T02:55:05.151Z,44.57
2019-02-18T02:57:47.801Z,44.35
2019-02-18T03:00:38.186Z,44.06
2019-02-18T03:03:20.835Z,44.28
2019-02-18T03:06:11.212Z,44.20
2019-02-18T03:08:54.693Z,44.08
2019-02-18T03:11:45.029Z,44.21
2019-02-18T03:14:27.945Z,44.36
2019-02-18T03:17:18.277Z,44.39
2019-02-18T03:20:01.471Z,44.64
2019-02-18T03:22:51.820Z,44.74
2019-02-18T03:25:35.227Z,44.91
2019-02-18T03:29:03.654Z,44.98
2019-02-18T03:31:46.644Z,45.25
2019-02-18T03:34:31.379Z,45.31
2019-02-18T03:37:21.758Z,45.47
2019-02-18T03:40:05.509Z,45.46
2019-02-18T03:42:55.903Z,45.44
2019-02-18T03:45:38.782Z,45.34
2019-02-18T03:48:29.096Z,45.54
2019-02-18T03:51:11.657Z,45.62
2019-02-18T03:54:02.150Z,45.67
2019-02-18T03:56:45.429Z,45.97
2019-02-18T04:03:04.149Z,46.09
2019-02-18T04:05:54.531Z,46.45
2019-02-18T04:08:44.919Z,46.41
2019-02-18T04:11:35.322Z,46.78
2019-02-18T04:14:38.255Z,46.51
2019-02-18T04:17:28.731Z,46.68
2019-02-18T04:20:11.352Z,46.59
2019-02-18T04:23:01.721Z,46.90
2019-02-18T04:25:44.997Z,47.06
2019-02-18T04:28:35.379Z,47.14
2019-02-18T04:31:18.059Z,47.54
2019-02-18T04:34:08.470Z,47.35
2019-02-18T04:36:51.113Z,47.50
2019-02-18T04:39:41.461Z,47.56
2019-02-18T04:42:24.498Z,47.60
2019-02-18T04:45:14.855Z,47.75
2019-02-18T04:47:58.267Z,48.17
2019-02-18T04:50:48.625Z,48.48
2019-02-18T04:53:31.356Z,48.29
2019-02-18T04:56:21.774Z,48.37
2019-02-18T04:59:04.760Z,48.59
2019-02-18T05:02:14.129Z,49.04
2019-02-18T05:04:57.603Z,49.17
2019-02-18T05:07:47.943Z,49.24
2019-02-18T05:10:31.304Z,48.95
2019-02-18T05:13:21.698Z,48.76
2019-02-18T05:16:04.738Z,48.82
2019-02-18T05:18:48.030Z,48.87
2019-02-18T05:21:38.377Z,49.03
2019-02-18T05:24:21.603Z,48.80
2019-02-18T05:27:11.947Z,49.13
2019-02-18T05:29:54.548Z,49.59
2019-02-18T05:32:44.940Z,49.77
2019-02-18T05:35:27.601Z,49.83
2019-02-18T05:38:10.468Z,50.17
2019-02-18T05:41:01.479Z,49.77
2019-02-18T05:43:44.022Z,49.80
2019-02-18T05:46:34.387Z,50.00
2019-02-18T05:49:17.385Z,50.18
2019-02-18T05:52:07.894Z,50.16
2019-02-18T05:55:11.098Z,50.19
2019-02-18T05:58:01.516Z,50.01
2019-02-18T06:00:44.434Z,50.11
2019-02-18T06:03:34.761Z,49.94
2019-02-18T06:06:18.035Z,49.89
2019-02-18T06:09:08.437Z,49.36
2019-02-18T06:12:11.301Z,49.23
2019-02-18T06:15:01.659Z,48.92
2019-02-18T06:17:44.980Z,48.80
2019-02-18T06:20:27.825Z,48.36
2019-02-18T06:23:18.898Z,48.10
2019-02-18T06:26:01.890Z,47.97
2019-02-18T06:28:52.301Z,47.75
2019-02-18T06:31:35.549Z,47.63
2019-02-18T06:34:25.969Z,47.66
2019-02-18T06:37:08.971Z,47.45
2019-02-18T06:39:59.356Z,47.28
2019-02-18T06:42:42.879Z,47.37
2019-02-18T06:45:39.608Z,47.20
2019-02-18T06:48:41.693Z,47.12
2019-02-18T06:55:00.327Z,46.82
2019-02-18T06:58:09.500Z,46.69
2019-02-18T07:01:18.713Z,46.50
2019-02-18T07:04:40.885Z,46.26
2019-02-18T07:07:50.097Z,45.76
2019-02-18T07:10:39.854Z,45.37
2019-02-18T07:13:30.209Z,44.68
2019-02-18T07:16:13.540Z,44.20
2019-02-18T07:18:59.171Z,43.57
2019-02-18T07:21:48.677Z,42.94
2019-02-18T07:24:31.984Z,42.37
2019-02-18T07:27:22.407Z,41.53
2019-02-18T07:30:05.992Z,40.56
2019-02-18T07:32:48.652Z,38.90
2019-02-18T07:35:39.073Z,36.18
2019-02-18T07:38:22.648Z,33.00
2019-02-18T07:41:13.046Z,30.59
2019-02-18T07:43:57.632Z,28.97
2019-02-18T07:46:48.023Z,26.93
2019-02-18T07:49:31.344Z,26.03
2019-02-18T07:52:21.753Z,24.90
2019-02-18T07:55:06.233Z,24.18
2019-02-18T07:57:56.645Z,24.13
2019-02-18T08:00:39.422Z,23.88
2019-02-18T08:03:29.849Z,23.57
2019-02-18T08:06:12.985Z,22.11
2019-02-18T08:12:19.351Z,21.86
2019-02-18T08:15:06.292Z,22.47
2019-02-18T08:17:49.206Z,21.95
2019-02-18T08:20:39.639Z,22.74
2019-02-18T08:23:22.528Z,22.41
2019-02-18T08:26:12.914Z,22.58
2019-02-18T08:29:16.074Z,23.90
2019-02-18T08:32:06.482Z,25.02
2019-02-18T08:35:09.700Z,24.63
2019-02-18T08:38:00.104Z,25.34
2019-02-18T08:41:03.539Z,25.49
2019-02-18T08:43:53.929Z,25.47
2019-02-18T08:46:36.834Z,24.87
2019-02-18T08:49:19.605Z,25.79
2019-02-18T08:55:12.259Z,26.50
2019-02-18T08:58:23.101Z,26.89
2019-02-18T09:01:06.045Z,26.63
2019-02-18T09:03:56.379Z,27.16
2019-02-18T09:06:39.875Z,27.01
2019-02-18T09:12:58.865Z,26.37
2019-02-18T09:15:59.409Z,25.89
2019-02-18T09:18:54.133Z,25.65
2019-02-18T09:21:44.591Z,25.09
2019-02-18T09:24:31.833Z,24.96
2019-02-18T09:27:15.415Z,24.70
2019-02-18T09:30:06.643Z,24.68
2019-02-18T09:32:50.025Z,24.28
2019-02-18T09:35:40.485Z,23.96
2019-02-18T09:38:25.374Z,23.69
2019-02-18T09:41:15.282Z,23.10
2019-02-18T09:43:58.596Z,22.39
2019-02-18T09:47:07.835Z,22.17
2019-02-18T09:49:51.012Z,21.62
2019-02-18T09:52:41.428Z,20.85
2019-02-18T09:55:24.401Z,21.21
2019-02-18T09:58:14.818Z,20.92
2019-02-18T10:00:46.143Z,20.76
2019-02-18T10:03:36.515Z,20.86
2019-02-18T10:09:29.827Z,21.37
2019-02-18T10:12:20.208Z,21.50
2019-02-18T10:15:02.873Z,21.61
2019-02-18T10:17:45.501Z,21.59
2019-02-18T10:20:35.847Z,21.08
2019-02-18T10:23:19.088Z,20.67
2019-02-18T10:26:09.437Z,20.63
2019-02-18T10:28:52.857Z,20.77
2019-02-18T10:31:43.233Z,21.05
2019-02-18T10:34:25.826Z,21.44
2019-02-18T10:37:19.319Z,21.01
2019-02-18T10:40:02.679Z,20.85
2019-02-18T10:42:53.014Z,21.21
2019-02-18T10:45:35.907Z,20.95
2019-02-18T10:48:26.323Z,21.65
2019-02-18T10:51:09.140Z,21.81
2019-02-18T10:54:00.123Z,22.63
2019-02-18T10:57:04.367Z,22.22
2019-02-18T10:59:54.760Z,22.67
2019-02-18T11:02:37.372Z,22.82
2019-02-18T11:05:27.773Z,22.39
2019-02-18T11:08:20.719Z,22.21
2019-02-18T11:11:17.041Z,22.79
2019-02-18T11:14:23.055Z,22.60
2019-02-18T11:17:06.388Z,22.93
2019-02-18T11:19:56.744Z,22.34
2019-02-18T11:22:40.975Z,22.22
2019-02-18T11:25:31.374Z,21.73
2019-02-18T11:28:14.607Z,21.76
2019-02-18T11:31:05.791Z,21.00
2019-02-18T11:33:48.591Z,20.78
2019-02-18T11:36:38.986Z,20.43
2019-02-18T11:39:22.179Z,20.49
2019-02-18T11:42:12.538Z,20.76
2019-02-18T11:44:55.874Z,21.31
2019-02-18T11:47:46.622Z,20.58
2019-02-18T11:50:29.788Z,20.33
2019-02-18T11:53:20.139Z,20.17
2019-02-18T11:56:03.608Z,20.55
2019-02-18T11:58:53.988Z,20.67
2019-02-18T12:01:37.150Z,20.62
2019-02-18T12:04:27.520Z,19.39
2019-02-18T12:07:10.682Z,20.07
2019-02-18T12:10:01.169Z,19.68
2019-02-18T12:12:44.074Z,20.19
2019-02-18T12:15:34.463Z,19.40
2019-02-18T12:18:17.072Z,20.25
2019-02-18T12:21:07.734Z,20.02
2019-02-18T12:23:50.903Z,20.28
2019-02-18T12:26:41.318Z,19.83
2019-02-18T12:29:26.453Z,19.45
2019-02-18T12:32:15.957Z,19.25
2019-02-18T12:34:58.713Z,19.63
2019-02-18T12:37:55.253Z,18.75
2019-02-18T12:40:54.186Z,19.08
2019-02-18T12:43:36.934Z,19.08
2019-02-18T12:46:27.354Z,18.83
2019-02-18T12:49:10.166Z,18.78
2019-02-18T12:51:59.922Z,19.11
2019-02-18T12:54:42.691Z,18.79
2019-02-18T12:57:33.065Z,18.89
2019-02-18T13:00:16.507Z,19.34
2019-02-18T13:03:07.041Z,19.68
2019-02-18T13:06:10.140Z,19.91
2019-02-18T13:09:00.535Z,19.91
2019-02-18T13:12:03.283Z,19.83
2019-02-18T13:14:53.652Z,20.02
2019-02-18T13:17:58.418Z,19.51
2019-02-18T13:20:48.778Z,19.13
2019-02-18T13:23:31.888Z,18.40
2019-02-18T13:26:22.284Z,19.16
2019-02-18T13:29:05.612Z,19.12
2019-02-18T13:31:56.867Z,18.76
2019-02-18T13:34:47.264Z,18.69
2019-02-18T13:37:30.628Z,18.77
2019-02-18T13:40:21.148Z,18.62
2019-02-18T13:43:04.489Z,19.16
2019-02-18T13:45:54.899Z,18.70
2019-02-18T13:48:45.832Z,18.47
2019-02-18T13:51:28.799Z,18.32
2019-02-18T13:54:19.214Z,18.63
2019-02-18T13:57:22.046Z,19.04
2019-02-18T14:00:19.337Z,18.24
2019-02-18T14:03:01.945Z,18.40
2019-02-18T14:05:52.302Z,17.86
2019-02-18T14:08:35.259Z,18.41
2019-02-18T14:11:25.636Z,17.57
2019-02-18T14:14:08.270Z,17.93
2019-02-18T14:16:58.645Z,17.71
2019-02-18T14:20:03.093Z,17.52
2019-02-18T14:26:05.415Z,16.35
2019-02-18T14:28:48.816Z,17.00
2019-02-18T14:31:39.198Z,16.70
2019-02-18T14:34:22.382Z,17.00
2019-02-18T14:37:12.761Z,17.64
2019-02-18T14:39:56.221Z,17.56
2019-02-18T14:42:39.177Z,17.04
2019-02-18T14:45:29.615Z,17.22
2019-02-18T14:48:12.949Z,16.76
2019-02-18T14:51:03.333Z,17.10
2019-02-18T14:53:46.031Z,17.61
2019-02-18T14:56:36.683Z,17.89
2019-02-18T14:59:20.104Z,17.69
2019-02-18T15:02:10.988Z,18.09
2019-02-18T15:04:53.849Z,18.27
2019-02-18T15:07:44.271Z,18.52
2019-02-18T15:10:27.720Z,18.79
2019-02-18T15:13:18.107Z,18.99
2019-02-18T15:16:22.430Z,18.96
2019-02-18T15:19:12.823Z,19.79
2019-02-18T15:21:55.433Z,20.28
2019-02-18T15:24:45.858Z,20.12
2019-02-18T15:27:50.511Z,20.54
2019-02-18T15:30:40.984Z,20.98
2019-02-18T15:33:23.746Z,20.87
2019-02-18T15:36:14.087Z,21.23
2019-02-18T15:39:18.390Z,21.16
2019-02-18T15:42:08.839Z,21.58
2019-02-18T15:44:51.877Z,21.74
2019-02-18T15:47:42.263Z,22.10
2019-02-18T15:50:46.699Z,22.27
2019-02-18T15:53:37.158Z,22.92
2019-02-18T15:56:20.111Z,23.01
2019-02-18T15:59:10.485Z,25.21
2019-02-18T16:02:15.668Z,23.83
2019-02-18T16:05:08.847Z,25.40
2019-02-18T16:07:52.060Z,25.54
2019-02-18T16:14:10.443Z,25.05
2019-02-18T16:17:01.423Z,25.71
2019-02-18T16:19:51.805Z,25.30
2019-02-18T16:22:56.892Z,26.26
2019-02-18T16:26:00.055Z,26.64
2019-02-18T16:28:50.419Z,27.55
2019-02-18T16:31:54.652Z,26.97
2019-02-18T16:34:41.339Z,26.98
2019-02-18T16:37:32.307Z,27.34
2019-02-18T16:40:16.153Z,27.63
2019-02-18T16:43:06.550Z,28.42
2019-02-18T16:45:49.627Z,27.98
2019-02-18T16:48:42.760Z,28.28
2019-02-18T16:51:25.833Z,29.42
2019-02-18T16:54:16.224Z,29.44
2019-02-18T16:56:59.666Z,29.15
2019-02-18T16:59:50.069Z,29.47
2019-02-18T17:02:33.223Z,30.20
2019-02-18T17:05:23.625Z,30.44
2019-02-18T17:08:06.643Z,30.88
2019-02-18T17:10:59.468Z,30.06
2019-02-18T17:13:42.550Z,30.26
2019-02-18T17:16:32.980Z,32.45
2019-02-18T17:19:15.620Z,30.92
2019-02-18T17:22:06.009Z,30.67
2019-02-18T17:24:49.513Z,29.48
2019-02-18T17:27:39.897Z,29.38
2019-02-18T17:30:22.758Z,29.45
2019-02-18T17:33:05.555Z,29.69
2019-02-18T17:35:55.928Z,30.04
2019-02-18T17:38:39.306Z,30.11
2019-02-18T17:41:29.697Z,30.31
2019-02-18T17:44:32.773Z,30.62
2019-02-18T17:47:35.435Z,30.78
2019-02-18T17:50:26.778Z,31.14
2019-02-18T17:53:09.971Z,31.55
2019-02-18T17:56:00.341Z,32.34
2019-02-18T17:58:42.951Z,32.60
2019-02-18T18:01:33.307Z,32.95
2019-02-18T18:04:16.521Z,33.38
2019-02-18T18:07:07.113Z,33.56
2019-02-18T18:09:49.133Z,33.85
2019-02-18T18:12:32.636Z,34.28
2019-02-18T18:15:23.011Z,34.66
2019-02-18T18:18:06.412Z,35.31
2019-02-18T18:20:57.133Z,35.70
2019-02-18T18:23:39.881Z,35.98
2019-02-18T18:26:30.276Z,36.08
2019-02-18T18:29:13.589Z,36.68
2019-02-18T18:32:03.968Z,37.05
2019-02-18T18:34:47.261Z,37.43
2019-02-18T18:37:37.674Z,37.55
2019-02-18T18:40:20.886Z,37.97
2019-02-18T18:43:11.295Z,38.30
2019-02-18T18:45:54.686Z,38.44
2019-02-18T18:48:45.143Z,38.75
2019-02-18T18:51:27.950Z,39.06
2019-02-18T18:54:18.444Z,39.29
2019-02-18T18:57:01.114Z,39.45
2019-02-18T18:59:51.575Z,39.67
2019-02-18T19:02:34.796Z,39.96
2019-02-18T19:05:25.250Z,40.08
2019-02-18T19:08:08.484Z,40.56
2019-02-18T19:14:07.985Z,41.03
2019-02-18T19:19:59.976Z,41.46
2019-02-18T19:23:04.563Z,41.66
2019-02-18T19:25:54.963Z,41.73
2019-02-18T19:28:38.136Z,41.97
2019-02-18T19:31:21.178Z,42.17
2019-02-18T19:34:11.579Z,41.86
2019-02-18T19:36:54.358Z,42.00
2019-02-18T19:39:44.754Z,42.27
2019-02-18T19:42:16.159Z,42.50
2019-02-18T19:45:07.605Z,42.79
2019-02-18T19:51:00.176Z,42.93
2019-02-18T19:53:50.581Z,43.19
2019-02-18T19:56:33.853Z,43.26
2019-02-18T19:59:24.289Z,43.24
2019-02-18T20:02:07.227Z,43.43
2019-02-18T20:04:57.732Z,43.52
2019-02-18T20:07:40.759Z,43.92
2019-02-18T20:10:31.329Z,43.95
2019-02-18T20:13:14.479Z,43.98
2019-02-18T20:16:04.988Z,44.18
2019-02-18T20:19:09.914Z,44.39
2019-02-18T20:22:00.346Z,44.55
2019-02-18T20:24:43.681Z,44.89
2019-02-18T20:27:34.123Z,45.10
2019-02-18T20:30:38.970Z,44.95
2019-02-18T20:33:30.412Z,45.36
2019-02-18T20:36:14.050Z,45.40
2019-02-18T20:39:04.979Z,45.69
2019-02-18T20:42:09.610Z,45.50
2019-02-18T20:45:00.234Z,47.18
2019-02-18T20:47:44.556Z,48.10
2019-02-18T20:50:34.940Z,45.69
2019-02-18T20:53:38.279Z,48.22
2019-02-18T20:56:28.791Z,46.51
2019-02-18T20:59:12.201Z,44.75
2019-02-18T21:02:02.608Z,45.33
2019-02-18T21:05:07.790Z,45.79
2019-02-18T21:07:58.239Z,46.03
2019-02-18T21:10:40.841Z,46.34
2019-02-18T21:13:31.285Z,46.62
2019-02-18T21:16:14.409Z,46.79
2019-02-18T21:19:04.824Z,47.10
2019-02-18T21:21:47.725Z,47.27
2019-02-18T21:24:38.178Z,47.34
2019-02-18T21:27:21.707Z,47.26
2019-02-18T21:30:12.774Z,47.34
2019-02-18T21:32:55.864Z,47.67
2019-02-18T21:35:46.525Z,47.86
2019-02-18T21:38:30.053Z,48.12
2019-02-18T21:41:23.976Z,47.99
2019-02-18T21:44:07.492Z,47.91
2019-02-18T21:46:57.850Z,48.37
2019-02-18T21:49:40.976Z,48.31
2019-02-18T21:52:31.383Z,48.45
2019-02-18T21:55:14.320Z,48.38
2019-02-18T21:58:04.693Z,48.47
2019-02-18T22:00:48.095Z,48.54
2019-02-18T22:03:38.459Z,48.77
2019-02-18T22:06:21.413Z,49.01
2019-02-18T22:09:11.806Z,48.77
2019-02-18T22:11:54.842Z,48.61
2019-02-18T22:14:45.223Z,48.87
2019-02-18T22:17:28.318Z,49.08
2019-02-18T22:20:18.730Z,49.21
2019-02-18T22:23:09.082Z,48.87
2019-02-18T22:25:59.539Z,49.01
2019-02-18T22:28:42.673Z,48.99
2019-02-18T22:31:33.052Z,49.11
2019-02-18T22:34:15.686Z,49.40
2019-02-18T22:37:06.037Z,49.23
2019-02-18T22:39:49.107Z,49.59
2019-02-18T22:42:39.580Z,49.57
2019-02-18T22:45:23.194Z,49.55
2019-02-18T22:48:13.585Z,49.80
2019-02-18T22:50:56.931Z,50.01
2019-02-18T22:53:47.293Z,49.86
2019-02-18T22:56:30.003Z,50.05
2019-02-18T22:59:20.395Z,50.24
2019-02-18T23:02:03.236Z,50.12
2019-02-18T23:04:53.605Z,50.24
2019-02-18T23:07:36.891Z,50.40
2019-02-18T23:10:47.177Z,50.89
2019-02-18T23:13:30.625Z,50.54
2019-02-18T23:16:20.962Z,50.72
2019-02-18T23:19:04.357Z,50.60
2019-02-18T23:21:47.303Z,50.68
2019-02-18T23:24:37.674Z,50.59
2019-02-18T23:27:41.893Z,50.70
2019-02-18T23:30:32.284Z,50.95
2019-02-18T23:33:15.019Z,50.87
2019-02-18T23:36:05.416Z,51.13
2019-02-18T23:38:48.714Z,50.93
2019-02-18T23:41:39.112Z,50.98
2019-02-18T23:44:21.949Z,50.91
2019-02-18T23:47:12.323Z,51.23
2019-02-18T23:49:54.904Z,51.16
2019-02-18T23:52:37.401Z,51.29
2019-02-18T23:55:27.777Z,51.25
2019-02-18T23:58:10.879Z,50.92
